DONNÉES MÉTÉO

HIER
Time Temp. Dewp. Hum. Bar.
00:08 25.3 21.2 78 1021.5
00:18 25.3 21.2 78 1021.5
00:28 25.2 20.9 77 1021.4
00:38 25.2 20.9 77 1021.3
00:48 25.1 20.8 77 1021.3
00:58 25.1 20.8 77 1021.2
01:08 25.1 20.8 77 1021.2
01:19 25.1 20.6 76 1021.1
01:29 25 20.5 76 1021.1
01:39 25 20.3 75 1021.1
01:49 24.9 20.2 75 1021
01:59 24.8 20.1 75 1020.9
02:09 24.8 20.1 75 1020.8
02:19 24.7 19.8 74 1020.7
02:29 24.7 19.5 73 1020.8
02:39 24.6 19.4 73 1020.8
02:49 24.6 19.2 72 1020.8
02:59 24.5 19.1 72 1020.8
03:10 24.4 19 72 1020.8
03:19 24.4 19 72 1020.8
03:29 24.3 18.9 72 1020.9
03:40 24.3 18.9 72 1020.8
03:50 24.3 18.9 72 1020.7
04:00 24.3 18.9 72 1020.6
04:10 24.3 18.9 72 1020.5
04:20 24.2 19.1 73 1020.4
04:30 24.2 19.1 73 1020.4
04:40 24.2 19.1 73 1020.5
04:51 24.2 18.8 72 1020.4
05:00 24.1 18.7 72 1020.3
05:10 24.1 18.7 72 1020.2
05:20 24.1 18.7 72 1020.1
05:31 24 18.6 72 1020.1
05:41 24 18.6 72 1020.1
05:50 24 18.6 72 1020.1
06:01 23.9 18.3 71 1020.1
06:11 23.9 18.3 71 1020.2
06:21 23.8 18 70 1020.3
06:31 23.8 18.2 71 1020.3
06:41 23.8 18.2 71 1020.2
06:51 23.8 18 70 1020.2
07:01 23.7 17.9 70 1020.2
07:12 23.7 17.9 70 1020.3
07:21 23.7 17.9 70 1020.4
07:31 23.6 18 71 1020.4
07:41 23.6 17.8 70 1020.4
07:52 23.6 18 71 1020.4
08:02 23.8 18.9 74 1020.5
08:11 24.3 18.9 72 1020.5
08:22 24.7 19.1 71 1020.5
08:32 25 19.4 71 1020.6
08:42 25.2 19.8 72 1020.6
08:52 25.4 19.8 71 1020.7
09:02 25.3 19 68 1020.7
09:12 25 18.9 69 1020.6
09:22 24.8 19 70 1020.6
09:33 24.6 19 71 1020.7
09:42 24.6 19.2 72 1020.8
09:52 24.5 19.1 72 1020.8
10:02 24.5 19.3 73 1020.9
10:13 24.5 19.3 73 1021
10:23 24.5 19.6 74 1021.1
10:33 24.6 19.7 74 1021.1
10:43 24.6 19.9 75 1021.1
10:53 24.7 20 75 1021.1
11:03 24.9 20.2 75 1021.2
11:13 25.3 20.3 74 1021.2
11:24 25.6 20.6 74 1021.3
11:34 25.7 20.7 74 1021.2
11:43 25.7 20.7 74 1021.2
11:54 25.6 20.6 74 1021.2
12:04 25.4 20.4 74 1021.3
12:14 25.3 20.3 74 1021.3
12:24 25.2 20.5 75 1021.3
12:34 25.2 20.2 74 1021.3
12:44 25.1 20.1 74 1021.3
12:54 25.1 20.1 74 1021.2
13:04 25.1 20.4 75 1021.1
13:15 25.1 20.4 75 1021.1
13:24 25.1 20.4 75 1021
13:34 25.2 20.5 75 1020.9
13:45 25.2 20.5 75 1020.9
13:55 25.3 20.6 75 1020.8
14:05 25.3 20.6 75 1020.8
14:14 25.3 20.6 75 1020.7
14:25 25.3 20.6 75 1020.7
14:35 25.3 20.6 75 1020.7
14:45 25.3 20.6 75 1020.7
14:56 25.3 20.6 75 1020.7
15:06 25.3 20.6 75 1020.6
15:15 25.3 20.8 76 1020.6
15:25 25.3 20.6 75 1020.6
15:36 25.3 20.6 75 1020.6
15:46 25.3 20.8 76 1020.5
15:56 25.2 20.7 76 1020.4
16:06 25.2 20.7 76 1020.3
16:16 25.2 20.7 76 1020.3
16:26 25.2 20.7 76 1020.2
16:36 25.2 20.7 76 1020.2
16:47 25.2 20.7 76 1020.2
16:57 25.2 20.7 76 1020.2
17:06 25.2 20.7 76 1020.1
17:17 25.2 20.7 76 1020.2
17:27 25.2 20.9 77 1020
17:37 25.2 20.9 77 1020
17:47 25.2 20.9 77 1020
17:58 25.2 20.9 77 1019.9
18:07 25.2 20.9 77 1019.8
18:17 25.2 20.9 77 1019.8
18:27 25.2 20.7 76 1019.7
18:38 25.1 20.8 77 1019.7
18:48 25.1 20.8 77 1019.6
18:57 25.1 20.8 77 1019.5
19:08 25.1 20.8 77 1019.4
19:18 25.1 20.8 77 1019.4
19:28 25.1 21 78 1019.3
19:38 25.1 21 78 1019.3
19:49 25.1 21 78 1019.2
19:58 25.1 21 78 1019.2
20:08 25.1 21 78 1019.2
20:19 25 20.9 78 1019.2
20:29 25 20.9 78 1019.3
20:39 25 20.9 78 1019.4
20:49 25 20.9 78 1019.4
20:59 25 20.9 78 1019.4
21:09 25 20.9 78 1019.5
21:19 24.9 20.8 78 1019.6
21:29 24.9 20.8 78 1019.6
21:40 24.9 20.8 78 1019.7
21:49 24.9 20.8 78 1019.6
21:59 24.9 20.8 78 1019.7
22:10 24.8 20.7 78 1019.7
22:20 24.8 20.7 78 1019.7
22:30 24.8 20.7 78 1019.7
22:40 24.7 20.6 78 1019.8
22:50 24.7 20.6 78 1019.9
23:00 24.7 20.6 78 1019.8
23:10 24.6 20.5 78 1019.9
23:21 24.6 20.5 78 1019.8
23:30 24.6 20.5 78 1019.8
23:50 24.5 20.4 78 1019.7

SATISTIQUES DU JOUR

2020-08-09
TEMPÉRATURE
MOYEN
24.8
MAXI
25.7
11:34
MINI
23.6
07:31
PRESSION
MOYEN
1020.4
MAXI
1021.5
00:08
MINI
1019.2
19:49
POINT DE ROSÉE
MOYEN
20.0
MAXI
21.2
00:08
MINI
17.8
07:41
HUMIDITÉ
MOYEN
75
MAXI
78
00:08
MINI
68
09:02
TEMPÉRATURE (°C)
MINI
23.6
MAXI
25.7
MOYEN
24.8
PRESSION (hpa)
MINI
1019.2
MAXI
1021.5
MOYEN
1020.4
DEVICE